sensor_id;sensor_type;location;lat;lon;timestamp;temperature;humidity
1347;DHT22;667;48.796;9.480;2024-01-11T00:00:24;0.00;64.00
1347;DHT22;667;48.796;9.480;2024-01-11T00:02:49;0.00;64.10
1347;DHT22;667;48.796;9.480;2024-01-11T00:05:15;0.00;64.20
1347;DHT22;667;48.796;9.480;2024-01-11T00:07:41;0.00;64.00
1347;DHT22;667;48.796;9.480;2024-01-11T00:10:06;0.00;64.00
1347;DHT22;667;48.796;9.480;2024-01-11T00:12:32;0.00;64.00
1347;DHT22;667;48.796;9.480;2024-01-11T00:14:57;0.00;63.90
1347;DHT22;667;48.796;9.480;2024-01-11T00:17:24;-0.10;63.90
1347;DHT22;667;48.796;9.480;2024-01-11T00:19:50;-0.10;63.90
1347;DHT22;667;48.796;9.480;2024-01-11T00:22:16;-0.10;63.90
1347;DHT22;667;48.796;9.480;2024-01-11T00:24:42;-0.10;63.90
1347;DHT22;667;48.796;9.480;2024-01-11T00:27:07;-0.10;63.90
1347;DHT22;667;48.796;9.480;2024-01-11T00:29:33;-0.10;63.90
1347;DHT22;667;48.796;9.480;2024-01-11T00:31:59;-0.10;64.00
1347;DHT22;667;48.796;9.480;2024-01-11T00:34:25;-0.20;63.80
1347;DHT22;667;48.796;9.480;2024-01-11T00:36:50;-0.20;63.90
1347;DHT22;667;48.796;9.480;2024-01-11T00:39:16;-0.20;64.10
1347;DHT22;667;48.796;9.480;2024-01-11T00:41:41;-0.20;64.30
1347;DHT22;667;48.796;9.480;2024-01-11T00:44:07;-0.20;64.30
1347;DHT22;667;48.796;9.480;2024-01-11T00:46:33;-0.20;64.30
1347;DHT22;667;48.796;9.480;2024-01-11T00:48:59;-0.20;64.40
1347;DHT22;667;48.796;9.480;2024-01-11T00:51:25;-0.20;64.30
1347;DHT22;667;48.796;9.480;2024-01-11T00:53:50;-0.20;64.40
1347;DHT22;667;48.796;9.480;2024-01-11T00:56:19;-0.30;64.30
1347;DHT22;667;48.796;9.480;2024-01-11T00:58:45;-0.30;64.30
1347;DHT22;667;48.796;9.480;2024-01-11T01:01:12;-0.20;64.30
1347;DHT22;667;48.796;9.480;2024-01-11T01:03:38;-0.30;64.10
1347;DHT22;667;48.796;9.480;2024-01-11T01:06:03;-0.20;64.10
1347;DHT22;667;48.796;9.480;2024-01-11T01:08:29;-0.20;64.00
1347;DHT22;667;48.796;9.480;2024-01-11T01:10:55;-0.30;63.60
1347;DHT22;667;48.796;9.480;2024-01-11T01:13:20;-0.30;63.50
1347;DHT22;667;48.796;9.480;2024-01-11T01:15:46;-0.30;63.50
1347;DHT22;667;48.796;9.480;2024-01-11T01:18:11;-0.30;63.60
1347;DHT22;667;48.796;9.480;2024-01-11T01:20:37;-0.30;63.60
1347;DHT22;667;48.796;9.480;2024-01-11T01:23:03;-0.30;63.40
1347;DHT22;667;48.796;9.480;2024-01-11T01:25:29;-0.30;63.50
1347;DHT22;667;48.796;9.480;2024-01-11T01:27:55;-0.30;63.60
1347;DHT22;667;48.796;9.480;2024-01-11T01:30:21;-0.30;63.60
1347;DHT22;667;48.796;9.480;2024-01-11T01:32:46;-0.30;63.60
1347;DHT22;667;48.796;9.480;2024-01-11T01:35:12;-0.30;63.70
1347;DHT22;667;48.796;9.480;2024-01-11T01:37:37;-0.40;63.60
1347;DHT22;667;48.796;9.480;2024-01-11T01:40:03;-0.40;63.50
1347;DHT22;667;48.796;9.480;2024-01-11T01:42:29;-0.40;63.50
1347;DHT22;667;48.796;9.480;2024-01-11T01:44:54;-0.40;63.50
1347;DHT22;667;48.796;9.480;2024-01-11T01:47:21;-0.40;63.40
1347;DHT22;667;48.796;9.480;2024-01-11T01:49:47;-0.40;63.50
1347;DHT22;667;48.796;9.480;2024-01-11T01:52:14;-0.50;63.50
1347;DHT22;667;48.796;9.480;2024-01-11T01:54:41;-0.50;63.50
1347;DHT22;667;48.796;9.480;2024-01-11T01:57:08;-0.50;63.60
1347;DHT22;667;48.796;9.480;2024-01-11T01:59:34;-0.50;63.70
1347;DHT22;667;48.796;9.480;2024-01-11T02:02:00;-0.50;63.80
1347;DHT22;667;48.796;9.480;2024-01-11T02:04:27;-0.60;64.00
1347;DHT22;667;48.796;9.480;2024-01-11T02:06:53;-0.60;64.10
1347;DHT22;667;48.796;9.480;2024-01-11T02:09:19;-0.50;64.30
1347;DHT22;667;48.796;9.480;2024-01-11T02:11:46;-0.50;64.60
1347;DHT22;667;48.796;9.480;2024-01-11T02:14:12;-0.60;64.60
1347;DHT22;667;48.796;9.480;2024-01-11T02:16:37;-0.50;64.60
1347;DHT22;667;48.796;9.480;2024-01-11T02:19:05;-0.50;64.70
1347;DHT22;667;48.796;9.480;2024-01-11T02:21:33;-0.50;64.60
1347;DHT22;667;48.796;9.480;2024-01-11T02:24:03;-0.50;64.50
1347;DHT22;667;48.796;9.480;2024-01-11T02:26:29;-0.50;64.30
1347;DHT22;667;48.796;9.480;2024-01-11T02:28:55;-0.50;64.00
1347;DHT22;667;48.796;9.480;2024-01-11T02:31:20;-0.50;63.90
1347;DHT22;667;48.796;9.480;2024-01-11T02:33:46;-0.50;63.80
1347;DHT22;667;48.796;9.480;2024-01-11T02:36:13;-0.50;63.80
1347;DHT22;667;48.796;9.480;2024-01-11T02:38:39;-0.40;63.70
1347;DHT22;667;48.796;9.480;2024-01-11T02:41:07;-0.50;63.50
1347;DHT22;667;48.796;9.480;2024-01-11T02:43:33;-0.50;63.50
1347;DHT22;667;48.796;9.480;2024-01-11T02:46:01;-0.50;63.40
1347;DHT22;667;48.796;9.480;2024-01-11T02:48:28;-0.50;63.40
1347;DHT22;667;48.796;9.480;2024-01-11T02:50:55;-0.50;63.30
1347;DHT22;667;48.796;9.480;2024-01-11T02:53:20;-0.60;63.20
1347;DHT22;667;48.796;9.480;2024-01-11T02:55:46;-0.60;63.50
1347;DHT22;667;48.796;9.480;2024-01-11T02:58:11;-0.60;63.70
1347;DHT22;667;48.796;9.480;2024-01-11T03:00:37;-0.60;63.70
1347;DHT22;667;48.796;9.480;2024-01-11T03:03:03;-0.60;63.70
1347;DHT22;667;48.796;9.480;2024-01-11T03:05:28;-0.60;63.70
1347;DHT22;667;48.796;9.480;2024-01-11T03:07:54;-0.60;63.70
1347;DHT22;667;48.796;9.480;2024-01-11T03:10:19;-0.60;63.60
1347;DHT22;667;48.796;9.480;2024-01-11T03:12:45;-0.60;63.50
1347;DHT22;667;48.796;9.480;2024-01-11T03:15:10;-0.60;63.40
1347;DHT22;667;48.796;9.480;2024-01-11T03:17:36;-0.70;64.00
1347;DHT22;667;48.796;9.480;2024-01-11T03:20:02;-0.70;63.30
1347;DHT22;667;48.796;9.480;2024-01-11T03:22:29;-0.70;63.20
1347;DHT22;667;48.796;9.480;2024-01-11T03:24:55;-0.70;63.30
1347;DHT22;667;48.796;9.480;2024-01-11T03:27:20;-0.70;63.40
1347;DHT22;667;48.796;9.480;2024-01-11T03:29:47;-0.70;63.50
1347;DHT22;667;48.796;9.480;2024-01-11T03:32:14;-0.70;63.40
1347;DHT22;667;48.796;9.480;2024-01-11T03:34:40;-0.70;63.20
1347;DHT22;667;48.796;9.480;2024-01-11T03:37:05;-0.70;63.20
1347;DHT22;667;48.796;9.480;2024-01-11T03:39:31;-0.70;63.00
1347;DHT22;667;48.796;9.480;2024-01-11T03:41:56;-0.70;62.80
1347;DHT22;667;48.796;9.480;2024-01-11T03:44:22;-0.80;62.70
1347;DHT22;667;48.796;9.480;2024-01-11T03:46:48;-0.80;62.70
1347;DHT22;667;48.796;9.480;2024-01-11T03:49:14;-0.80;62.80
1347;DHT22;667;48.796;9.480;2024-01-11T03:51:39;-0.80;63.00
1347;DHT22;667;48.796;9.480;2024-01-11T03:54:05;-0.80;63.00
1347;DHT22;667;48.796;9.480;2024-01-11T03:56:30;-0.80;62.80
1347;DHT22;667;48.796;9.480;2024-01-11T03:58:56;-0.80;62.70
1347;DHT22;667;48.796;9.480;2024-01-11T04:01:22;-0.80;62.60
1347;DHT22;667;48.796;9.480;2024-01-11T04:03:47;-0.80;62.70
1347;DHT22;667;48.796;9.480;2024-01-11T04:06:22;-0.80;62.70
1347;DHT22;667;48.796;9.480;2024-01-11T04:08:49;-0.90;62.60
1347;DHT22;667;48.796;9.480;2024-01-11T04:11:15;-0.90;62.60
1347;DHT22;667;48.796;9.480;2024-01-11T04:13:40;-0.90;62.60
1347;DHT22;667;48.796;9.480;2024-01-11T04:16:06;-0.90;62.60
1347;DHT22;667;48.796;9.480;2024-01-11T04:18:32;-0.90;62.60
1347;DHT22;667;48.796;9.480;2024-01-11T04:20:58;-0.90;62.70
1347;DHT22;667;48.796;9.480;2024-01-11T04:23:23;-0.90;62.60
1347;DHT22;667;48.796;9.480;2024-01-11T04:25:50;-0.90;62.50
1347;DHT22;667;48.796;9.480;2024-01-11T04:28:16;-1.00;62.50
1347;DHT22;667;48.796;9.480;2024-01-11T04:30:42;-1.00;62.60
1347;DHT22;667;48.796;9.480;2024-01-11T04:33:08;-1.00;62.80
1347;DHT22;667;48.796;9.480;2024-01-11T04:35:33;-1.00;62.90
1347;DHT22;667;48.796;9.480;2024-01-11T04:37:59;-1.00;63.00
1347;DHT22;667;48.796;9.480;2024-01-11T04:40:24;-1.00;62.90
1347;DHT22;667;48.796;9.480;2024-01-11T04:42:50;-1.00;62.80
1347;DHT22;667;48.796;9.480;2024-01-11T04:45:15;-1.00;62.80
1347;DHT22;667;48.796;9.480;2024-01-11T04:47:41;-1.00;62.80
1347;DHT22;667;48.796;9.480;2024-01-11T04:50:07;-1.00;62.80
1347;DHT22;667;48.796;9.480;2024-01-11T04:52:32;-1.10;62.80
1347;DHT22;667;48.796;9.480;2024-01-11T04:54:58;-1.10;62.80
1347;DHT22;667;48.796;9.480;2024-01-11T04:57:24;-1.10;62.80
1347;DHT22;667;48.796;9.480;2024-01-11T04:59:49;-1.10;62.80
1347;DHT22;667;48.796;9.480;2024-01-11T05:02:15;-1.10;62.80
1347;DHT22;667;48.796;9.480;2024-01-11T05:04:40;-1.10;62.80
1347;DHT22;667;48.796;9.480;2024-01-11T05:07:06;-1.10;62.70
1347;DHT22;667;48.796;9.480;2024-01-11T05:09:31;-1.10;62.80
1347;DHT22;667;48.796;9.480;2024-01-11T05:11:58;-1.00;62.80
1347;DHT22;667;48.796;9.480;2024-01-11T05:14:23;-1.10;62.70
1347;DHT22;667;48.796;9.480;2024-01-11T05:16:49;-1.10;62.50
1347;DHT22;667;48.796;9.480;2024-01-11T05:19:15;-1.10;62.50
1347;DHT22;667;48.796;9.480;2024-01-11T05:21:41;-1.10;62.50
1347;DHT22;667;48.796;9.480;2024-01-11T05:24:06;-1.10;62.50
1347;DHT22;667;48.796;9.480;2024-01-11T05:26:32;-1.10;62.40
1347;DHT22;667;48.796;9.480;2024-01-11T05:28:58;-1.10;62.40
1347;DHT22;667;48.796;9.480;2024-01-11T05:31:23;-1.10;62.40
1347;DHT22;667;48.796;9.480;2024-01-11T05:33:49;-1.10;62.40
1347;DHT22;667;48.796;9.480;2024-01-11T05:36:14;-1.10;62.40
1347;DHT22;667;48.796;9.480;2024-01-11T05:38:40;-1.20;62.30
1347;DHT22;667;48.796;9.480;2024-01-11T05:41:06;-1.20;62.30
1347;DHT22;667;48.796;9.480;2024-01-11T05:43:32;-1.20;62.20
1347;DHT22;667;48.796;9.480;2024-01-11T05:45:57;-1.20;62.20
1347;DHT22;667;48.796;9.480;2024-01-11T05:48:23;-1.20;62.30
1347;DHT22;667;48.796;9.480;2024-01-11T05:50:49;-1.20;62.10
1347;DHT22;667;48.796;9.480;2024-01-11T05:53:15;-1.20;62.20
1347;DHT22;667;48.796;9.480;2024-01-11T05:55:42;-1.30;62.10
1347;DHT22;667;48.796;9.480;2024-01-11T05:58:08;-1.30;62.20
1347;DHT22;667;48.796;9.480;2024-01-11T06:00:34;-1.30;62.40
1347;DHT22;667;48.796;9.480;2024-01-11T06:02:59;-1.30;62.50
1347;DHT22;667;48.796;9.480;2024-01-11T06:05:25;-1.30;62.80
1347;DHT22;667;48.796;9.480;2024-01-11T06:07:51;-1.30;63.20
1347;DHT22;667;48.796;9.480;2024-01-11T06:10:17;-1.30;63.30
1347;DHT22;667;48.796;9.480;2024-01-11T06:12:42;-1.30;63.00
1347;DHT22;667;48.796;9.480;2024-01-11T06:15:08;-1.30;62.90
1347;DHT22;667;48.796;9.480;2024-01-11T06:17:35;-1.30;63.60
1347;DHT22;667;48.796;9.480;2024-01-11T06:20:01;-1.30;62.80
1347;DHT22;667;48.796;9.480;2024-01-11T06:22:26;-1.30;62.80
1347;DHT22;667;48.796;9.480;2024-01-11T06:24:52;-1.30;62.90
1347;DHT22;667;48.796;9.480;2024-01-11T06:27:17;-1.30;62.80
1347;DHT22;667;48.796;9.480;2024-01-11T06:29:43;-1.30;62.70
1347;DHT22;667;48.796;9.480;2024-01-11T06:32:08;-1.30;62.50
1347;DHT22;667;48.796;9.480;2024-01-11T06:34:37;-1.30;63.10
1347;DHT22;667;48.796;9.480;2024-01-11T06:37:02;-1.30;62.60
1347;DHT22;667;48.796;9.480;2024-01-11T06:39:29;-1.30;62.70
1347;DHT22;667;48.796;9.480;2024-01-11T06:41:55;-1.40;62.60
1347;DHT22;667;48.796;9.480;2024-01-11T06:44:21;-1.40;62.60
1347;DHT22;667;48.796;9.480;2024-01-11T06:46:46;-1.40;62.50
1347;DHT22;667;48.796;9.480;2024-01-11T06:49:12;-1.40;62.50
1347;DHT22;667;48.796;9.480;2024-01-11T06:51:37;-1.40;62.50
1347;DHT22;667;48.796;9.480;2024-01-11T06:54:04;-1.40;62.60
1347;DHT22;667;48.796;9.480;2024-01-11T06:56:30;-1.40;62.60
1347;DHT22;667;48.796;9.480;2024-01-11T06:58:56;-1.40;62.60
1347;DHT22;667;48.796;9.480;2024-01-11T07:01:21;-1.40;62.60
1347;DHT22;667;48.796;9.480;2024-01-11T07:03:47;-1.40;62.50
1347;DHT22;667;48.796;9.480;2024-01-11T07:06:12;-1.40;62.40
1347;DHT22;667;48.796;9.480;2024-01-11T07:08:38;-1.40;62.40
1347;DHT22;667;48.796;9.480;2024-01-11T07:11:03;-1.40;62.50
1347;DHT22;667;48.796;9.480;2024-01-11T07:13:30;-1.40;62.50
1347;DHT22;667;48.796;9.480;2024-01-11T07:15:57;-1.40;62.30
1347;DHT22;667;48.796;9.480;2024-01-11T07:18:23;-1.40;62.30
1347;DHT22;667;48.796;9.480;2024-01-11T07:20:50;-1.40;62.30
1347;DHT22;667;48.796;9.480;2024-01-11T07:23:16;-1.40;62.20
1347;DHT22;667;48.796;9.480;2024-01-11T07:25:43;-1.40;62.30
1347;DHT22;667;48.796;9.480;2024-01-11T07:28:08;-1.40;62.30
1347;DHT22;667;48.796;9.480;2024-01-11T07:30:34;-1.40;62.20
1347;DHT22;667;48.796;9.480;2024-01-11T07:33:00;-1.40;62.30
1347;DHT22;667;48.796;9.480;2024-01-11T07:35:25;-1.40;62.40
1347;DHT22;667;48.796;9.480;2024-01-11T07:37:51;-1.40;62.30
1347;DHT22;667;48.796;9.480;2024-01-11T07:40:17;-1.40;62.20
1347;DHT22;667;48.796;9.480;2024-01-11T07:42:43;-1.40;62.20
1347;DHT22;667;48.796;9.480;2024-01-11T07:45:09;-1.40;62.30
1347;DHT22;667;48.796;9.480;2024-01-11T07:47:35;-1.40;62.40
1347;DHT22;667;48.796;9.480;2024-01-11T07:50:06;-1.40;62.40
1347;DHT22;667;48.796;9.480;2024-01-11T07:52:35;-1.40;62.30
1347;DHT22;667;48.796;9.480;2024-01-11T07:55:00;-1.40;62.20
1347;DHT22;667;48.796;9.480;2024-01-11T07:57:32;-1.40;62.10
1347;DHT22;667;48.796;9.480;2024-01-11T07:59:58;-1.40;62.30
1347;DHT22;667;48.796;9.480;2024-01-11T08:02:25;-1.30;62.60
1347;DHT22;667;48.796;9.480;2024-01-11T08:04:50;-1.30;62.50
1347;DHT22;667;48.796;9.480;2024-01-11T08:07:16;-1.30;63.30
1347;DHT22;667;48.796;9.480;2024-01-11T08:09:41;-1.30;62.60
1347;DHT22;667;48.796;9.480;2024-01-11T08:12:11;-1.20;62.70
1347;DHT22;667;48.796;9.480;2024-01-11T08:14:36;-1.20;62.60
1347;DHT22;667;48.796;9.480;2024-01-11T08:17:02;-1.20;62.60
1347;DHT22;667;48.796;9.480;2024-01-11T08:19:30;-1.10;62.70
1347;DHT22;667;48.796;9.480;2024-01-11T08:21:55;-1.00;62.80
1347;DHT22;667;48.796;9.480;2024-01-11T08:24:22;-1.00;62.60
1347;DHT22;667;48.796;9.480;2024-01-11T08:26:47;-0.80;62.80
1347;DHT22;667;48.796;9.480;2024-01-11T08:29:13;-0.70;62.80
1347;DHT22;667;48.796;9.480;2024-01-11T08:31:39;-0.60;62.70
1347;DHT22;667;48.796;9.480;2024-01-11T08:34:04;-0.50;62.50
1347;DHT22;667;48.796;9.480;2024-01-11T08:36:34;-0.40;62.30
1347;DHT22;667;48.796;9.480;2024-01-11T08:39:02;-0.30;62.30
1347;DHT22;667;48.796;9.480;2024-01-11T08:41:30;-0.20;62.10
1347;DHT22;667;48.796;9.480;2024-01-11T08:43:56;-0.10;62.00
1347;DHT22;667;48.796;9.480;2024-01-11T08:46:28;0.00;61.90
1347;DHT22;667;48.796;9.480;2024-01-11T08:48:56;0.10;61.80
1347;DHT22;667;48.796;9.480;2024-01-11T08:51:22;0.10;61.70
1347;DHT22;667;48.796;9.480;2024-01-11T08:53:48;0.10;61.50
1347;DHT22;667;48.796;9.480;2024-01-11T08:56:13;0.20;61.70
1347;DHT22;667;48.796;9.480;2024-01-11T08:58:41;0.40;61.80
1347;DHT22;667;48.796;9.480;2024-01-11T09:01:07;0.60;61.60
1347;DHT22;667;48.796;9.480;2024-01-11T09:03:34;0.70;61.20
1347;DHT22;667;48.796;9.480;2024-01-11T09:06:00;0.80;60.90
1347;DHT22;667;48.796;9.480;2024-01-11T09:08:26;1.00;60.60
1347;DHT22;667;48.796;9.480;2024-01-11T09:10:52;1.00;60.10
1347;DHT22;667;48.796;9.480;2024-01-11T09:13:18;1.10;60.00
1347;DHT22;667;48.796;9.480;2024-01-11T09:15:44;1.10;59.90
1347;DHT22;667;48.796;9.480;2024-01-11T09:18:10;1.00;59.90
1347;DHT22;667;48.796;9.480;2024-01-11T09:20:36;1.40;60.90
1347;DHT22;667;48.796;9.480;2024-01-11T09:23:01;2.70;61.50
1347;DHT22;667;48.796;9.480;2024-01-11T09:25:29;4.30;59.50
1347;DHT22;667;48.796;9.480;2024-01-11T09:27:55;5.80;57.00
1347;DHT22;667;48.796;9.480;2024-01-11T09:30:21;7.10;53.40
1347;DHT22;667;48.796;9.480;2024-01-11T09:32:46;8.30;51.00
1347;DHT22;667;48.796;9.480;2024-01-11T09:35:13;9.30;49.20
1347;DHT22;667;48.796;9.480;2024-01-11T09:37:38;10.10;46.30
1347;DHT22;667;48.796;9.480;2024-01-11T09:40:05;10.80;44.60
1347;DHT22;667;48.796;9.480;2024-01-11T09:42:38;11.50;43.20
1347;DHT22;667;48.796;9.480;2024-01-11T09:45:09;12.10;41.60
1347;DHT22;667;48.796;9.480;2024-01-11T09:47:36;12.70;40.40
1347;DHT22;667;48.796;9.480;2024-01-11T09:50:06;13.20;39.70
1347;DHT22;667;48.796;9.480;2024-01-11T09:52:32;13.80;38.80
1347;DHT22;667;48.796;9.480;2024-01-11T09:54:58;14.30;37.70
1347;DHT22;667;48.796;9.480;2024-01-11T09:57:26;14.80;37.00
1347;DHT22;667;48.796;9.480;2024-01-11T09:59:55;15.20;36.20
1347;DHT22;667;48.796;9.480;2024-01-11T10:02:25;15.80;34.40
1347;DHT22;667;48.796;9.480;2024-01-11T10:04:53;16.00;34.60
1347;DHT22;667;48.796;9.480;2024-01-11T10:07:23;16.30;33.90
1347;DHT22;667;48.796;9.480;2024-01-11T10:09:50;16.70;33.60
1347;DHT22;667;48.796;9.480;2024-01-11T10:12:17;16.90;32.90
1347;DHT22;667;48.796;9.480;2024-01-11T10:14:46;17.00;32.20
1347;DHT22;667;48.796;9.480;2024-01-11T10:17:11;17.20;32.00
1347;DHT22;667;48.796;9.480;2024-01-11T10:19:37;17.40;31.50
1347;DHT22;667;48.796;9.480;2024-01-11T10:22:03;17.70;31.40
1347;DHT22;667;48.796;9.480;2024-01-11T10:24:30;17.90;31.00
1347;DHT22;667;48.796;9.480;2024-01-11T10:26:56;18.10;30.90
1347;DHT22;667;48.796;9.480;2024-01-11T10:29:22;18.20;30.20
1347;DHT22;667;48.796;9.480;2024-01-11T10:31:49;18.20;29.40
1347;DHT22;667;48.796;9.480;2024-01-11T10:34:16;18.30;29.60
1347;DHT22;667;48.796;9.480;2024-01-11T10:36:41;18.50;30.10
1347;DHT22;667;48.796;9.480;2024-01-11T10:39:08;18.50;29.10
1347;DHT22;667;48.796;9.480;2024-01-11T10:41:40;18.40;28.80
1347;DHT22;667;48.796;9.480;2024-01-11T10:44:20;18.40;28.80
1347;DHT22;667;48.796;9.480;2024-01-11T10:46:51;18.30;29.00
1347;DHT22;667;48.796;9.480;2024-01-11T10:49:19;18.20;29.20
1347;DHT22;667;48.796;9.480;2024-01-11T10:52:03;18.10;29.30
1347;DHT22;667;48.796;9.480;2024-01-11T10:54:31;18.00;29.30
1347;DHT22;667;48.796;9.480;2024-01-11T10:57:00;18.10;29.80
1347;DHT22;667;48.796;9.480;2024-01-11T10:59:27;18.20;30.00
1347;DHT22;667;48.796;9.480;2024-01-11T11:01:57;17.50;29.70
1347;DHT22;667;48.796;9.480;2024-01-11T11:04:24;15.80;29.60
1347;DHT22;667;48.796;9.480;2024-01-11T11:06:56;14.10;31.60
1347;DHT22;667;48.796;9.480;2024-01-11T11:09:24;12.60;33.80
1347;DHT22;667;48.796;9.480;2024-01-11T11:11:54;11.50;35.40
1347;DHT22;667;48.796;9.480;2024-01-11T11:14:22;10.60;36.60
1347;DHT22;667;48.796;9.480;2024-01-11T11:16:48;9.90;38.80
1347;DHT22;667;48.796;9.480;2024-01-11T11:19:14;9.20;39.80
1347;DHT22;667;48.796;9.480;2024-01-11T11:21:43;8.70;41.00
1347;DHT22;667;48.796;9.480;2024-01-11T11:24:10;8.30;42.00
1347;DHT22;667;48.796;9.480;2024-01-11T11:26:36;8.00;42.90
1347;DHT22;667;48.796;9.480;2024-01-11T11:29:03;7.70;43.80
1347;DHT22;667;48.796;9.480;2024-01-11T11:31:42;7.40;44.20
1347;DHT22;667;48.796;9.480;2024-01-11T11:34:11;7.20;45.30
1347;DHT22;667;48.796;9.480;2024-01-11T11:36:39;6.90;45.20
1347;DHT22;667;48.796;9.480;2024-01-11T11:39:04;6.70;45.50
1347;DHT22;667;48.796;9.480;2024-01-11T11:41:31;6.50;45.70
1347;DHT22;667;48.796;9.480;2024-01-11T11:44:04;6.30;46.00
1347;DHT22;667;48.796;9.480;2024-01-11T11:46:30;6.20;46.50
1347;DHT22;667;48.796;9.480;2024-01-11T11:48:56;6.10;47.10
1347;DHT22;667;48.796;9.480;2024-01-11T11:51:23;6.00;47.80
1347;DHT22;667;48.796;9.480;2024-01-11T11:53:50;6.00;48.30
1347;DHT22;667;48.796;9.480;2024-01-11T11:56:17;5.90;48.50
1347;DHT22;667;48.796;9.480;2024-01-11T11:58:44;5.80;48.60
1347;DHT22;667;48.796;9.480;2024-01-11T12:01:10;5.80;48.70
1347;DHT22;667;48.796;9.480;2024-01-11T12:03:38;5.70;48.80
1347;DHT22;667;48.796;9.480;2024-01-11T12:06:08;5.70;48.80
1347;DHT22;667;48.796;9.480;2024-01-11T12:08:36;5.60;48.90
1347;DHT22;667;48.796;9.480;2024-01-11T12:11:02;5.60;49.20
1347;DHT22;667;48.796;9.480;2024-01-11T12:13:28;5.60;49.60
1347;DHT22;667;48.796;9.480;2024-01-11T12:15:55;5.50;49.70
1347;DHT22;667;48.796;9.480;2024-01-11T12:18:21;5.40;49.80
1347;DHT22;667;48.796;9.480;2024-01-11T12:20:47;5.40;49.90
1347;DHT22;667;48.796;9.480;2024-01-11T12:23:12;5.40;50.20
1347;DHT22;667;48.796;9.480;2024-01-11T12:25:41;5.30;50.30
1347;DHT22;667;48.796;9.480;2024-01-11T12:28:07;5.30;50.50
1347;DHT22;667;48.796;9.480;2024-01-11T12:30:33;5.20;50.70
1347;DHT22;667;48.796;9.480;2024-01-11T12:32:59;5.20;51.10
1347;DHT22;667;48.796;9.480;2024-01-11T12:35:27;5.10;51.30
1347;DHT22;667;48.796;9.480;2024-01-11T12:37:59;5.10;51.70
1347;DHT22;667;48.796;9.480;2024-01-11T12:40:25;5.00;51.90
1347;DHT22;667;48.796;9.480;2024-01-11T12:42:53;5.00;52.20
1347;DHT22;667;48.796;9.480;2024-01-11T12:45:21;4.90;52.30
1347;DHT22;667;48.796;9.480;2024-01-11T12:47:47;4.90;52.50
1347;DHT22;667;48.796;9.480;2024-01-11T12:50:13;4.90;52.60
1347;DHT22;667;48.796;9.480;2024-01-11T12:52:39;4.90;52.80
1347;DHT22;667;48.796;9.480;2024-01-11T12:55:07;4.80;52.90
1347;DHT22;667;48.796;9.480;2024-01-11T12:57:33;4.80;53.10
1347;DHT22;667;48.796;9.480;2024-01-11T13:02:42;4.80;53.50
1347;DHT22;667;48.796;9.480;2024-01-11T13:05:11;4.80;53.60
1347;DHT22;667;48.796;9.480;2024-01-11T13:07:37;4.80;53.70
1347;DHT22;667;48.796;9.480;2024-01-11T13:10:04;4.80;53.80
1347;DHT22;667;48.796;9.480;2024-01-11T13:12:30;4.70;53.80
1347;DHT22;667;48.796;9.480;2024-01-11T13:14:56;4.70;54.00
1347;DHT22;667;48.796;9.480;2024-01-11T13:17:21;4.70;54.20
1347;DHT22;667;48.796;9.480;2024-01-11T13:19:47;4.60;54.20
1347;DHT22;667;48.796;9.480;2024-01-11T13:22:13;4.60;54.40
1347;DHT22;667;48.796;9.480;2024-01-11T13:24:38;4.60;54.50
1347;DHT22;667;48.796;9.480;2024-01-11T13:27:04;4.60;54.60
1347;DHT22;667;48.796;9.480;2024-01-11T13:29:29;4.60;54.60
1347;DHT22;667;48.796;9.480;2024-01-11T13:31:55;4.60;54.80
1347;DHT22;667;48.796;9.480;2024-01-11T13:34:21;4.60;54.80
1347;DHT22;667;48.796;9.480;2024-01-11T13:36:46;4.60;55.00
1347;DHT22;667;48.796;9.480;2024-01-11T13:39:12;4.60;55.10
1347;DHT22;667;48.796;9.480;2024-01-11T13:41:37;4.60;55.30
1347;DHT22;667;48.796;9.480;2024-01-11T13:44:03;4.50;55.30
1347;DHT22;667;48.796;9.480;2024-01-11T13:46:32;4.50;55.40
1347;DHT22;667;48.796;9.480;2024-01-11T13:48:58;4.50;55.60
1347;DHT22;667;48.796;9.480;2024-01-11T13:51:23;4.50;55.70
1347;DHT22;667;48.796;9.480;2024-01-11T13:53:49;4.60;55.80
1347;DHT22;667;48.796;9.480;2024-01-11T13:56:14;4.50;55.80
1347;DHT22;667;48.796;9.480;2024-01-11T13:58:40;4.50;55.80
1347;DHT22;667;48.796;9.480;2024-01-11T14:01:05;4.50;55.90
1347;DHT22;667;48.796;9.480;2024-01-11T14:03:33;4.50;55.90
1347;DHT22;667;48.796;9.480;2024-01-11T14:05:59;4.50;56.00
1347;DHT22;667;48.796;9.480;2024-01-11T14:08:25;4.50;56.00
1347;DHT22;667;48.796;9.480;2024-01-11T14:10:51;4.50;56.10
1347;DHT22;667;48.796;9.480;2024-01-11T14:13:17;4.50;56.20
1347;DHT22;667;48.796;9.480;2024-01-11T14:15:42;4.50;56.20
1347;DHT22;667;48.796;9.480;2024-01-11T14:18:08;4.50;56.20
1347;DHT22;667;48.796;9.480;2024-01-11T14:20:34;4.50;56.30
1347;DHT22;667;48.796;9.480;2024-01-11T14:23:00;4.50;56.40
1347;DHT22;667;48.796;9.480;2024-01-11T14:25:26;4.50;56.40
1347;DHT22;667;48.796;9.480;2024-01-11T14:27:52;4.50;56.50
1347;DHT22;667;48.796;9.480;2024-01-11T14:30:18;4.50;56.50
1347;DHT22;667;48.796;9.480;2024-01-11T14:32:44;4.40;56.40
1347;DHT22;667;48.796;9.480;2024-01-11T14:35:10;4.40;56.40
1347;DHT22;667;48.796;9.480;2024-01-11T14:37:38;4.40;56.60
1347;DHT22;667;48.796;9.480;2024-01-11T14:40:07;4.40;56.70
1347;DHT22;667;48.796;9.480;2024-01-11T14:42:35;4.40;56.80
1347;DHT22;667;48.796;9.480;2024-01-11T14:45:02;4.30;56.90
1347;DHT22;667;48.796;9.480;2024-01-11T14:47:29;4.30;57.10
1347;DHT22;667;48.796;9.480;2024-01-11T14:49:57;4.30;57.20
1347;DHT22;667;48.796;9.480;2024-01-11T14:52:22;4.20;57.50
1347;DHT22;667;48.796;9.480;2024-01-11T14:54:48;4.20;57.60
1347;DHT22;667;48.796;9.480;2024-01-11T14:57:14;4.10;57.70
1347;DHT22;667;48.796;9.480;2024-01-11T14:59:40;4.10;57.80
1347;DHT22;667;48.796;9.480;2024-01-11T15:02:06;4.10;58.00
1347;DHT22;667;48.796;9.480;2024-01-11T15:04:31;4.00;58.80
1347;DHT22;667;48.796;9.480;2024-01-11T15:06:57;4.00;58.40
1347;DHT22;667;48.796;9.480;2024-01-11T15:09:22;3.90;58.40
1347;DHT22;667;48.796;9.480;2024-01-11T15:11:48;3.90;58.50
1347;DHT22;667;48.796;9.480;2024-01-11T15:14:14;3.80;58.60
1347;DHT22;667;48.796;9.480;2024-01-11T15:16:39;3.80;58.70
1347;DHT22;667;48.796;9.480;2024-01-11T15:19:05;3.70;58.80
1347;DHT22;667;48.796;9.480;2024-01-11T15:21:31;3.70;59.00
1347;DHT22;667;48.796;9.480;2024-01-11T15:23:57;3.70;59.30
1347;DHT22;667;48.796;9.480;2024-01-11T15:26:26;3.60;59.40
1347;DHT22;667;48.796;9.480;2024-01-11T15:28:54;3.60;59.50
1347;DHT22;667;48.796;9.480;2024-01-11T15:31:20;3.50;59.50
1347;DHT22;667;48.796;9.480;2024-01-11T15:33:45;3.40;59.70
1347;DHT22;667;48.796;9.480;2024-01-11T15:36:11;3.40;59.70
1347;DHT22;667;48.796;9.480;2024-01-11T15:38:37;3.30;59.80
1347;DHT22;667;48.796;9.480;2024-01-11T15:41:03;3.30;60.00
1347;DHT22;667;48.796;9.480;2024-01-11T15:43:33;3.30;60.10
1347;DHT22;667;48.796;9.480;2024-01-11T15:45:58;3.20;60.20
1347;DHT22;667;48.796;9.480;2024-01-11T15:48:24;3.20;60.30
1347;DHT22;667;48.796;9.480;2024-01-11T15:50:51;3.10;60.30
1347;DHT22;667;48.796;9.480;2024-01-11T15:53:17;3.10;60.40
1347;DHT22;667;48.796;9.480;2024-01-11T15:55:42;3.00;60.60
1347;DHT22;667;48.796;9.480;2024-01-11T15:58:08;3.00;60.70
1347;DHT22;667;48.796;9.480;2024-01-11T16:00:34;2.90;60.80
1347;DHT22;667;48.796;9.480;2024-01-11T16:03:00;2.80;60.80
1347;DHT22;667;48.796;9.480;2024-01-11T16:05:26;2.80;61.10
1347;DHT22;667;48.796;9.480;2024-01-11T16:07:52;2.80;61.40
1347;DHT22;667;48.796;9.480;2024-01-11T16:10:17;2.70;61.40
1347;DHT22;667;48.796;9.480;2024-01-11T16:12:43;2.70;61.50
1347;DHT22;667;48.796;9.480;2024-01-11T16:15:09;2.70;61.70
1347;DHT22;667;48.796;9.480;2024-01-11T16:17:35;2.70;61.80
1347;DHT22;667;48.796;9.480;2024-01-11T16:20:01;2.60;61.60